Terminal Aerodrome Forecast
Issued by NWS

Home | Current Version | Previous Version | Text Only | Print | Product List | Glossary On
Versions: 1 2 3 4 5 6 7 8 9 10 11 12 13 14 15 16 17
000
FTUS42 KTAE 111100 RRA
TAFDHN
TAF
KDHN 111142Z 1112/1212 28004KT 1/4SM FG VV002
     FM111330 32005KT P6SM SCT030 SCT100
     FM111800 32008KT P6SM VCTS SCT040CB SCT250
      TEMPO 1118/1122 6SM -TSRA BKN025CB
     FM120100 VRB03KT P6SM SCT200=

USA.gov is the U.S. government's official web portal to all federal, state and local government web resources and services.